Time;durP1;ratioP1;P1;durP2;ratioP2;P2;SDS_P1;SDS_P2;PMS_P1;PMS_P2;Temp;Humidity;BMP_temperature;BMP_pressure;BME280_temperature;BME280_humidity;BME280_pressure;Samples;Min_cycle;Max_cycle;Signal;HPM_P1;HPM_P2
2021/09/02 10:46:52;;;;;;;15.55;11.02;;;;;;;;;;1037641;28;100037;-66
2021/09/02 10:47:23;;;;;;;16.70;10.32;;;;;;;;;;1033010;28;100356;-69
2021/09/02 10:48:07;;;;;;;20.70;11.13;;;;;;;;;;1035587;28;100272;-65
2021/09/02 10:48:47;;;;;;;16.40;10.63;;;;;;;;;;1033885;28;100240;-67
2021/09/02 10:49:39;;;;;;;19.38;10.48;;;;;;;;;;1035954;28;99789;-67
2021/09/02 10:50:20;;;;;;;23.30;10.82;;;;;;;;;;1032939;28;100215;-67
2021/09/02 10:50:55;;;;;;;17.42;10.07;;;;;;;;;;1029947;28;100041;-68
2021/09/02 10:51:37;;;;;;;21.08;10.32;;;;;;;;;;1028020;28;100167;-70
2021/09/02 10:52:28;;;;;;;19.33;9.73;;;;;;;;;;1029542;28;99956;-67
2021/09/02 10:53:09;;;;;;;20.02;10.65;;;;;;;;;;1038007;28;100402;-67
2021/09/02 10:53:48;;;;;;;18.75;10.40;;;;;;;;;;1039187;28;99921;-66
2021/09/02 10:54:23;;;;;;;16.52;9.98;;;;;;;;;;1034157;28;100298;-66
2021/09/02 10:54:54;;;;;;;16.88;10.50;;;;;;;;;;1036353;28;100072;-67
2021/09/02 10:55:30;;;;;;;17.50;10.02;;;;;;;;;;1032236;28;100196;-69
2021/09/02 10:56:01;;;;;;;20.05;10.10;;;;;;;;;;1035816;28;100035;-68
2021/09/02 10:56:34;;;;;;;18.25;10.23;;;;;;;;;;1034869;28;100774;-66
2021/09/02 10:57:06;;;;;;;17.58;9.98;;;;;;;;;;1032809;28;100165;-66
2021/09/02 10:57:37;;;;;;;17.33;10.05;;;;;;;;;;1034306;28;100816;-66
2021/09/02 10:58:09;;;;;;;16.08;9.98;;;;;;;;;;1036015;28;99896;-67
2021/09/02 10:58:50;;;;;;;17.00;9.98;;;;;;;;;;1034977;28;100114;-67
2021/09/02 10:59:53;;;;;;;21.25;9.77;;;;;;;;;;1035915;28;100118;-67
2021/09/02 11:00:53;;;;;;;14.18;9.18;;;;;;;;;;1034743;28;100245;-66
2021/09/02 11:01:23;;;;;;;15.25;8.75;;;;;;;;;;1031210;28;99944;-66
2021/09/02 11:01:54;;;;;;;18.23;10.23;;;;;;;;;;1033169;28;100522;-66
2021/09/02 11:02:25;;;;;;;17.60;9.57;;;;;;;;;;1033117;28;99942;-68
2021/09/02 11:03:25;;;;;;;18.45;9.55;;;;;;;;;;1034849;28;100244;-68
2021/09/02 11:03:57;;;;;;;19.98;8.75;;;;;;;;;;1035030;28;99873;-67
2021/09/02 11:04:28;;;;;;;14.35;9.30;;;;;;;;;;1035262;28;100207;-67
2021/09/02 11:05:03;;;;;;;14.13;8.90;;;;;;;;;;1036227;28;100208;-66
2021/09/02 11:05:33;;;;;;;15.32;8.32;;;;;;;;;;1034770;28;100198;-67
2021/09/02 11:06:04;;;;;;;14.68;9.00;;;;;;;;;;1035885;28;100810;-67
2021/09/02 11:06:49;;;;;;;14.15;8.50;;;;;;;;;;1034624;28;100051;-68
2021/09/02 11:07:19;;;;;;;14.77;8.98;;;;;;;;;;1031645;28;99893;-66
2021/09/02 11:07:50;;;;;;;12.95;8.00;;;;;;;;;;1026316;28;101367;-67
2021/09/02 11:08:37;;;;;;;15.88;7.97;;;;;;;;;;1028697;28;100018;-68
2021/09/02 11:09:08;;;;;;;15.15;8.57;;;;;;;;;;1030880;28;100193;-66
2021/09/02 11:09:42;;;;;;;14.10;8.70;;;;;;;;;;1035952;28;99944;-67
2021/09/02 11:10:19;;;;;;;13.00;7.93;;;;;;;;;;1034953;28;100178;-67
2021/09/02 11:10:49;;;;;;;11.10;7.53;;;;;;;;;;1033888;28;101343;-67
2021/09/02 11:11:22;;;;;;;10.18;7.30;;;;;;;;;;1030474;28;100108;-66
2021/09/02 11:11:53;;;;;;;12.27;7.32;;;;;;;;;;1031607;28;100215;-66
2021/09/02 11:12:28;;;;;;;13.13;7.57;;;;;;;;;;1030748;28;101555;-66
2021/09/02 11:13:05;;;;;;;12.57;7.70;;;;;;;;;;1035998;28;99788;-65
2021/09/02 11:13:35;;;;;;;12.90;7.43;;;;;;;;;;1034340;28;100764;-65
2021/09/02 11:14:13;;;;;;;15.60;7.70;;;;;;;;;;1035724;28;100004;-67
2021/09/02 11:14:46;;;;;;;14.57;7.95;;;;;;;;;;1034552;28;100266;-66
2021/09/02 11:15:22;;;;;;;10.73;7.82;;;;;;;;;;1036059;28;100122;-67
2021/09/02 11:15:53;;;;;;;11.57;7.38;;;;;;;;;;1034813;28;101316;-66
2021/09/02 11:16:24;;;;;;;12.05;8.02;;;;;;;;;;1036043;28;100138;-66
2021/09/02 11:16:55;;;;;;;10.98;7.68;;;;;;;;;;1034797;28;100265;-65
2021/09/02 11:17:26;;;;;;;14.90;7.82;;;;;;;;;;1036224;28;99880;-67
2021/09/02 11:18:02;;;;;;;15.27;7.88;;;;;;;;;;1034964;28;100087;-66
2021/09/02 11:18:50;;;;;;;12.10;7.60;;;;;;;;;;1036201;28;100153;-66
2021/09/02 11:19:32;;;;;;;13.35;7.50;;;;;;;;;;1034419;28;100192;-67
2021/09/02 11:20:18;;;;;;;11.75;7.28;;;;;;;;;;1036503;28;100125;-65
2021/09/02 11:20:49;;;;;;;9.82;7.32;;;;;;;;;;1032307;28;102899;-66
2021/09/02 11:21:26;;;;;;;10.75;7.72;;;;;;;;;;1035934;28;99557;-66
2021/09/02 11:22:04;;;;;;;15.75;8.57;;;;;;;;;;1026029;28;101464;-66
2021/09/02 11:22:35;;;;;;;13.30;8.20;;;;;;;;;;1029776;28;99953;-66
2021/09/02 11:23:07;;;;;;;15.35;8.25;;;;;;;;;;1026307;28;100145;-67
2021/09/02 11:23:40;;;;;;;31.67;16.15;;;;;;;;;;1027475;28;99952;-66
2021/09/02 11:24:12;;;;;;;17.33;10.65;;;;;;;;;;1034613;28;100237;-65
2021/09/02 11:24:45;;;;;;;52.17;25.58;;;;;;;;;;1032525;28;100325;-66
2021/09/02 11:25:17;;;;;;;51.00;27.13;;;;;;;;;;1034288;28;100153;-66
2021/09/02 11:25:51;;;;;;;110.15;55.10;;;;;;;;;;1035565;28;100064;-66
2021/09/02 11:26:57;;;;;;;130.27;69.15;;;;;;;;;;1034436;28;100205;-67
2021/09/02 11:27:32;;;;;;;153.40;83.68;;;;;;;;;;1031359;28;99910;-67
2021/09/02 11:28:03;;;;;;;142.65;72.65;;;;;;;;;;1029980;28;101484;-65
2021/09/02 11:28:48;;;;;;;299.13;176.77;;;;;;;;;;1031561;28;100871;-67
2021/09/02 11:29:25;;;;;;;270.98;133.70;;;;;;;;;;1029189;28;100379;-66
2021/09/02 11:30:25;;;;;;;306.63;162.93;;;;;;;;;;1027015;28;100008;-66
2021/09/02 11:30:56;;;;;;;582.78;354.13;;;;;;;;;;1029332;28;99952;-67
2021/09/02 11:31:28;;;;;;;672.25;450.80;;;;;;;;;;1029825;28;100097;-67
2021/09/02 11:32:11;;;;;;;636.25;424.42;;;;;;;;;;1033653;28;101535;-67
2021/09/02 11:32:43;;;;;;;645.45;415.25;;;;;;;;;;1035628;28;100055;-67
2021/09/02 11:33:16;;;;;;;492.70;309.42;;;;;;;;;;1034451;28;100136;-67
2021/09/02 11:33:48;;;;;;;506.50;314.58;;;;;;;;;;1039637;28;99881;-68
2021/09/02 11:34:22;;;;;;;495.27;311.75;;;;;;;;;;1036444;27;100273;-67
2021/09/02 11:35:02;;;;;;;451.55;289.75;;;;;;;;;;1037279;28;100184;-67
2021/09/02 11:35:35;;;;;;;440.70;275.83;;;;;;;;;;1030427;28;101684;-67
2021/09/02 11:36:05;;;;;;;410.30;253.13;;;;;;;;;;1028869;28;101133;-67
2021/09/02 11:36:46;;;;;;;356.05;211.05;;;;;;;;;;1033067;28;100089;-68
2021/09/02 11:37:16;;;;;;;298.48;171.43;;;;;;;;;;1037488;27;101455;-66
2021/09/02 11:37:48;;;;;;;306.60;173.23;;;;;;;;;;1040781;27;100196;-67
2021/09/02 11:38:19;;;;;;;316.67;176.20;;;;;;;;;;1037359;28;99848;-66
2021/09/02 11:39:00;;;;;;;252.02;139.68;;;;;;;;;;1034107;28;101338;-67
2021/09/02 11:39:35;;;;;;;214.98;116.70;;;;;;;;;;1033674;28;100085;-68
2021/09/02 11:40:08;;;;;;;231.75;123.43;;;;;;;;;;1031986;28;100346;-66
2021/09/02 11:40:39;;;;;;;213.60;111.57;;;;;;;;;;1035741;28;99951;-68
2021/09/02 11:41:22;;;;;;;201.10;113.75;;;;;;;;;;1034792;28;100287;-67
2021/09/02 11:42:04;;;;;;;191.68;105.97;;;;;;;;;;1033923;28;100177;-65
2021/09/02 11:42:36;;;;;;;180.32;96.72;;;;;;;;;;1032949;28;100098;-66
2021/09/02 11:43:16;;;;;;;168.20;88.80;;;;;;;;;;1031441;28;99890;-66
2021/09/02 11:43:47;;;;;;;137.43;73.63;;;;;;;;;;1027744;28;100296;-67
2021/09/02 11:44:19;;;;;;;168.98;89.97;;;;;;;;;;1033446;28;99760;-65
2021/09/02 11:44:50;;;;;;;132.35;69.25;;;;;;;;;;1034299;28;102993;-66
2021/09/02 11:45:23;;;;;;;158.38;83.15;;;;;;;;;;1026412;28;99699;-66
2021/09/02 11:45:54;;;;;;;154.88;78.30;;;;;;;;;;1015098;28;101439;-67
2021/09/02 11:46:25;;;;;;;129.32;67.22;;;;;;;;;;1016343;28;100045;-67
2021/09/02 11:46:56;;;;;;;108.90;55.85;;;;;;;;;;1019708;28;100168;-67
2021/09/02 11:47:34;;;;;;;112.57;59.97;;;;;;;;;;1031819;28;100053;-67
2021/09/02 11:48:06;;;;;;;99.13;50.00;;;;;;;;;;1030206;28;100730;-66
2021/09/02 11:48:49;;;;;;;83.30;45.67;;;;;;;;;;1028786;28;100029;-65
2021/09/02 11:49:23;;;;;;;71.68;38.10;;;;;;;;;;1032911;28;100261;-67
2021/09/02 11:50:01;;;;;;;82.47;43.15;;;;;;;;;;1036691;28;100038;-65
2021/09/02 11:50:34;;;;;;;74.85;36.10;;;;;;;;;;1033970;28;101507;-68
2021/09/02 11:51:05;;;;;;;71.53;35.60;;;;;;;;;;1033431;28;100115;-67
2021/09/02 11:51:35;;;;;;;63.90;33.97;;;;;;;;;;1031388;28;100233;-67
2021/09/02 11:52:09;;;;;;;61.15;33.28;;;;;;;;;;1035786;28;100138;-65
2021/09/02 11:52:45;;;;;;;65.75;33.22;;;;;;;;;;1032342;28;101686;-66
2021/09/02 11:53:26;;;;;;;65.05;33.42;;;;;;;;;;1036074;28;99725;-66
2021/09/02 11:54:07;;;;;;;56.10;29.50;;;;;;;;;;1031772;28;101357;-66
2021/09/02 11:54:38;;;;;;;66.50;31.80;;;;;;;;;;1033164;28;99943;-68
2021/09/02 11:55:14;;;;;;;59.88;32.63;;;;;;;;;;1034372;28;100409;-67
2021/09/02 11:55:46;;;;;;;58.72;29.02;;;;;;;;;;1035581;28;100020;-67
2021/09/02 11:56:21;;;;;;;57.15;30.75;;;;;;;;;;1036982;27;100225;-67
2021/09/02 11:56:53;;;;;;;56.45;28.45;;;;;;;;;;1041267;27;99984;-67
2021/09/02 11:57:24;;;;;;;55.50;29.38;;;;;;;;;;1033944;28;102534;-67
2021/09/02 11:58:04;;;;;;;50.00;26.00;;;;;;;;;;1026161;28;99850;-67
2021/09/02 11:58:35;;;;;;;54.00;27.88;;;;;;;;;;1023115;28;100289;-67
2021/09/02 11:59:10;;;;;;;50.13;25.45;;;;;;;;;;1026369;28;100074;-67
2021/09/02 11:59:49;;;;;;;56.67;28.90;;;;;;;;;;1027392;28;101545;-66
2021/09/02 12:00:24;;;;;;;47.20;24.83;;;;;;;;;;1028799;28;99923;-67
2021/09/02 12:00:58;;;;;;;53.67;28.17;;;;;;;;;;1026873;28;101712;-66
2021/09/02 12:01:30;;;;;;;48.22;25.05;;;;;;;;;;1028561;28;99974;-67
2021/09/02 12:02:01;;;;;;;43.95;23.60;;;;;;;;;;1028911;28;100393;-66
2021/09/02 12:02:32;;;;;;;38.83;22.52;;;;;;;;;;1032761;28;99991;-66
2021/09/02 12:03:04;;;;;;;40.38;21.85;;;;;;;;;;1031765;28;100778;-66
2021/09/02 12:03:36;;;;;;;42.95;22.17;;;;;;;;;;1028484;28;100099;-67
2021/09/02 12:04:07;;;;;;;36.40;17.65;;;;;;;;;;1027619;28;100189;-68
2021/09/02 12:04:37;;;;;;;45.75;24.40;;;;;;;;;;1026138;28;100007;-70
2021/09/02 12:05:09;;;;;;;43.03;22.42;;;;;;;;;;1030181;28;101449;-70
2021/09/02 12:05:41;;;;;;;43.33;24.27;;;;;;;;;;1032967;28;99901;-70
2021/09/02 12:06:12;;;;;;;33.15;18.52;;;;;;;;;;1031853;28;100207;-69
2021/09/02 12:06:45;;;;;;;52.08;26.30;;;;;;;;;;1033072;28;100032;-69
2021/09/02 12:07:16;;;;;;;50.58;27.98;;;;;;;;;;1031581;28;101423;-70
2021/09/02 12:07:51;;;;;;;40.53;23.75;;;;;;;;;;1032599;28;99976;-65
2021/09/02 12:08:24;;;;;;;37.95;22.55;;;;;;;;;;1031801;28;101406;-67
2021/09/02 12:09:00;;;;;;;32.38;18.08;;;;;;;;;;1033231;28;99785;-65
2021/09/02 12:09:34;;;;;;;38.03;21.02;;;;;;;;;;1025158;28;100270;-66
2021/09/02 12:10:07;;;;;;;38.70;21.80;;;;;;;;;;1030495;28;99918;-65
2021/09/02 12:10:43;;;;;;;33.88;19.38;;;;;;;;;;1027542;28;103337;-66
2021/09/02 12:11:17;;;;;;;30.30;15.65;;;;;;;;;;1017516;28;99984;-65
2021/09/02 12:11:49;;;;;;;36.78;20.65;;;;;;;;;;1019675;28;100138;-65
2021/09/02 12:12:30;;;;;;;31.02;17.13;;;;;;;;;;1016277;28;99960;-65
2021/09/02 12:13:23;;;;;;;26.10;15.90;;;;;;;;;;1019955;28;100254;-65
2021/09/02 12:13:57;;;;;;;33.20;16.77;;;;;;;;;;1025230;28;99953;-65
2021/09/02 12:14:30;;;;;;;31.35;17.50;;;;;;;;;;1031820;28;101938;-67
2021/09/02 12:15:00;;;;;;;28.67;16.10;;;;;;;;;;1033111;28;100050;-66
2021/09/02 12:15:31;;;;;;;27.85;14.27;;;;;;;;;;1030097;28;100236;-66
2021/09/02 12:16:09;;;;;;;31.38;15.55;;;;;;;;;;1031941;28;100705;-66
2021/09/02 12:16:40;;;;;;;28.60;14.57;;;;;;;;;;1031805;28;100154;-66
2021/09/02 12:17:12;;;;;;;24.30;14.43;;;;;;;;;;1032427;28;99884;-66
2021/09/02 12:17:43;;;;;;;31.00;16.30;;;;;;;;;;1031512;28;100698;-67
2021/09/02 12:18:13;;;;;;;24.65;13.63;;;;;;;;;;1024384;28;100106;-67
2021/09/02 12:18:49;;;;;;;27.98;14.52;;;;;;;;;;1019632;28;100186;-67
2021/09/02 12:19:20;;;;;;;25.15;12.27;;;;;;;;;;1024591;28;100085;-66
2021/09/02 12:19:59;;;;;;;23.13;13.50;;;;;;;;;;1025211;28;100205;-66
2021/09/02 12:20:29;;;;;;;24.67;13.35;;;;;;;;;;1029914;28;99780;-67
2021/09/02 12:21:18;;;;;;;23.60;12.98;;;;;;;;;;1031875;28;100105;-69
2021/09/02 12:21:49;;;;;;;30.92;14.13;;;;;;;;;;1033047;28;99766;-66
2021/09/02 12:22:21;;;;;;;24.52;13.95;;;;;;;;;;1031896;28;100157;-67
2021/09/02 12:22:52;;;;;;;27.20;14.63;;;;;;;;;;1028506;28;99892;-68
2021/09/02 12:23:24;;;;;;;28.23;15.18;;;;;;;;;;1027262;28;101384;-67
2021/09/02 12:24:04;;;;;;;28.33;16.27;;;;;;;;;;1028432;28;100090;-67
2021/09/02 12:24:35;;;;;;;;;;;;;;;;;;1026145;28;100192;-67
2021/09/02 12:25:08;;;;;;;;;;;;;;;;;;1033163;28;100004;-67
2021/09/02 12:25:55;;;;;;;24.92;12.15;;;;;;;;;;1031951;28;100147;-66
2021/09/02 12:26:42;;;;;;;28.55;13.18;;;;;;;;;;1031855;28;100067;-67
2021/09/02 12:27:13;;;;;;;23.27;11.70;;;;;;;;;;1029044;28;100702;-67
2021/09/02 12:27:47;;;;;;;24.58;12.85;;;;;;;;;;1027960;28;100177;-67
2021/09/02 12:28:20;;;;;;;27.15;13.43;;;;;;;;;;1028612;28;100163;-67
2021/09/02 12:28:55;;;;;;;28.88;12.93;;;;;;;;;;1030284;28;100048;-67
2021/09/02 12:29:26;;;;;;;24.63;12.57;;;;;;;;;;1031482;28;100162;-68
2021/09/02 12:29:57;;;;;;;27.75;11.93;;;;;;;;;;1032833;28;99986;-68
2021/09/02 12:30:43;;;;;;;24.02;11.73;;;;;;;;;;1031488;28;100135;-67
2021/09/02 12:31:33;;;;;;;20.33;11.35;;;;;;;;;;1030815;28;100045;-67
2021/09/02 12:32:14;;;;;;;24.70;12.95;;;;;;;;;;1031805;28;100176;-67
2021/09/02 12:32:45;;;;;;;18.75;9.50;;;;;;;;;;1032113;28;100075;-68
2021/09/02 12:33:17;;;;;;;22.50;11.75;;;;;;;;;;1027205;28;101667;-68
2021/09/02 12:34:07;;;;;;;19.33;10.60;;;;;;;;;;1028672;28;100138;-67
2021/09/02 12:34:38;;;;;;;19.88;9.63;;;;;;;;;;1030321;28;100200;-67
2021/09/02 12:35:17;;;;;;;20.55;11.32;;;;;;;;;;1033242;28;99858;-68
2021/09/02 12:35:47;;;;;;;21.83;10.13;;;;;;;;;;1032247;28;100226;-68
2021/09/02 12:36:18;;;;;;;17.70;10.10;;;;;;;;;;1033113;28;100032;-67
2021/09/02 12:36:59;;;;;;;19.42;9.85;;;;;;;;;;1031891;28;100174;-67
2021/09/02 12:37:36;;;;;;;19.67;9.10;;;;;;;;;;1033039;28;100122;-67
2021/09/02 12:38:09;;;;;;;16.80;9.38;;;;;;;;;;1029980;28;101435;-68
2021/09/02 12:38:40;;;;;;;20.30;9.63;;;;;;;;;;1033055;28;99915;-67
2021/09/02 12:39:34;;;;;;;22.88;9.77;;;;;;;;;;1031963;28;100187;-68
2021/09/02 12:40:12;;;;;;;19.85;8.98;;;;;;;;;;1033538;28;99777;-67
2021/09/02 12:40:43;;;;;;;18.88;8.55;;;;;;;;;;1032370;28;100270;-67
2021/09/02 12:41:21;;;;;;;17.80;8.32;;;;;;;;;;1033474;28;100107;-67
2021/09/02 12:41:55;;;;;;;15.43;8.50;;;;;;;;;;1032160;28;100160;-67
2021/09/02 12:42:28;;;;;;;15.50;8.00;;;;;;;;;;1033509;28;99696;-66
2021/09/02 12:43:15;;;;;;;14.98;8.50;;;;;;;;;;1031381;28;101465;-66
2021/09/02 12:44:00;;;;;;;15.32;7.85;;;;;;;;;;1028808;28;99328;-66
2021/09/02 12:44:35;;;;;;;13.80;7.68;;;;;;;;;;1027519;28;101397;-67
2021/09/02 12:45:08;;;;;;;15.40;7.47;;;;;;;;;;1033010;28;99884;-67
2021/09/02 12:45:57;;;;;;;11.85;7.05;;;;;;;;;;1031618;28;101439;-67
2021/09/02 12:46:28;;;;;;;15.95;7.47;;;;;;;;;;1032299;28;99833;-67
2021/09/02 12:47:14;;;;;;;12.25;7.20;;;;;;;;;;1027513;28;100275;-67
2021/09/02 12:47:47;;;;;;;14.10;8.70;;;;;;;;;;1029040;28;99807;-67
2021/09/02 12:48:18;;;;;;;15.25;8.77;;;;;;;;;;1030345;28;100134;-67
2021/09/02 12:48:49;;;;;;;13.13;7.35;;;;;;;;;;1028328;28;99819;-66
2021/09/02 12:49:22;;;;;;;17.40;11.27;;;;;;;;;;1027881;28;100313;-67
2021/09/02 12:49:55;;;;;;;16.50;10.25;;;;;;;;;;1029205;28;100005;-68
2021/09/02 12:50:28;;;;;;;22.92;14.95;;;;;;;;;;1028844;28;100233;-68
2021/09/02 12:51:00;;;;;;;23.30;15.45;;;;;;;;;;1033457;28;99747;-68
2021/09/02 12:51:30;;;;;;;26.30;18.60;;;;;;;;;;1032196;28;100211;-67
2021/09/02 12:52:05;;;;;;;29.70;20.23;;;;;;;;;;1033482;28;100154;-68
2021/09/02 12:52:35;;;;;;;33.38;20.38;;;;;;;;;;1032185;28;100168;-68
2021/09/02 12:53:08;;;;;;;25.73;19.67;;;;;;;;;;1033109;28;99837;-68
2021/09/02 12:53:40;;;;;;;26.73;18.00;;;;;;;;;;1032079;28;100302;-68
2021/09/02 12:54:11;;;;;;;28.50;18.80;;;;;;;;;;1033049;28;99800;-68
2021/09/02 12:55:00;;;;;;;27.48;17.00;;;;;;;;;;1027465;28;101352;-68
2021/09/02 12:55:30;;;;;;;26.95;17.27;;;;;;;;;;1027366;28;99803;-68
2021/09/02 12:56:18;;;;;;;24.50;15.65;;;;;;;;;;1027920;28;100221;-68
2021/09/02 12:56:49;;;;;;;22.08;13.77;;;;;;;;;;1033024;28;101330;-68
2021/09/02 12:57:19;;;;;;;19.05;14.30;;;;;;;;;;1031683;28;101321;-68
2021/09/02 12:57:58;;;;;;;19.27;12.75;;;;;;;;;;1033568;28;100064;-68
2021/09/02 12:58:29;;;;;;;20.38;12.40;;;;;;;;;;1032089;28;101285;-68
2021/09/02 12:58:59;;;;;;;16.98;11.32;;;;;;;;;;1032764;28;99783;-68
2021/09/02 12:59:30;;;;;;;16.63;10.90;;;;;;;;;;1027446;28;101417;-68
2021/09/02 13:00:04;;;;;;;15.00;11.02;;;;;;;;;;1028857;28;100110;-68
2021/09/02 13:00:38;;;;;;;14.60;9.45;;;;;;;;;;1023978;28;101910;-69
2021/09/02 13:01:09;;;;;;;13.57;9.35;;;;;;;;;;1029895;28;100088;-68
2021/09/02 13:01:43;;;;;;;15.10;8.38;;;;;;;;;;1031714;28;100831;-68
2021/09/02 13:02:14;;;;;;;11.70;8.40;;;;;;;;;;1030428;28;99997;-68
2021/09/02 13:02:47;;;;;;;12.88;8.25;;;;;;;;;;1032075;28;100115;-67
2021/09/02 13:03:20;;;;;;;13.57;8.27;;;;;;;;;;1033024;28;99976;-68
2021/09/02 13:03:51;;;;;;;10.07;7.15;;;;;;;;;;1032019;28;100305;-68
2021/09/02 13:04:22;;;;;;;10.10;7.40;;;;;;;;;;1033037;28;99967;-67
2021/09/02 13:04:53;;;;;;;11.15;7.72;;;;;;;;;;1031735;28;101727;-68
2021/09/02 13:05:24;;;;;;;11.18;7.15;;;;;;;;;;1033291;28;99880;-68
2021/09/02 13:05:55;;;;;;;8.43;6.75;;;;;;;;;;1031947;28;100229;-68
2021/09/02 13:06:30;;;;;;;8.35;6.22;;;;;;;;;;1033333;28;99816;-68
2021/09/02 13:07:03;;;;;;;12.32;7.18;;;;;;;;;;1031997;28;100309;-67
2021/09/02 13:07:34;;;;;;;8.30;6.03;;;;;;;;;;1033092;28;100170;-68
2021/09/02 13:08:07;;;;;;;10.65;7.00;;;;;;;;;;1027514;28;101837;-67
2021/09/02 13:08:38;;;;;;;9.80;6.97;;;;;;;;;;1029769;28;99811;-68
2021/09/02 13:09:09;;;;;;;9.52;6.43;;;;;;;;;;1031559;28;101385;-68
2021/09/02 13:09:40;;;;;;;6.95;5.85;;;;;;;;;;1032842;28;99783;-68
2021/09/02 13:10:11;;;;;;;7.57;6.57;;;;;;;;;;1026887;28;103287;-68
2021/09/02 13:10:42;;;;;;;9.05;6.35;;;;;;;;;;1024542;28;100003;-67
2021/09/02 13:11:13;;;;;;;8.95;6.57;;;;;;;;;;1023645;28;100152;-67
2021/09/02 13:11:44;;;;;;;8.02;6.13;;;;;;;;;;1025535;28;99885;-68
2021/09/02 13:12:15;;;;;;;9.40;6.43;;;;;;;;;;1031827;28;101159;-67
2021/09/02 13:12:46;;;;;;;8.80;5.82;;;;;;;;;;1032920;28;99998;-67
2021/09/02 13:13:17;;;;;;;8.43;6.38;;;;;;;;;;1027617;28;102640;-68
2021/09/02 13:13:48;;;;;;;8.25;6.05;;;;;;;;;;1025037;28;99792;-69
2021/09/02 13:14:19;;;;;;;7.93;6.13;;;;;;;;;;1019564;28;103100;-68
2021/09/02 13:14:50;;;;;;;8.80;6.25;;;;;;;;;;1021198;28;99328;-68
2021/09/02 13:15:22;;;;;;;8.82;5.78;;;;;;;;;;1023539;28;101391;-69
2021/09/02 13:15:53;;;;;;;10.95;6.35;;;;;;;;;;1021136;28;99972;-68
2021/09/02 13:16:23;;;;;;;7.10;5.47;;;;;;;;;;1027776;28;100200;-68
2021/09/02 13:16:54;;;;;;;8.55;5.78;;;;;;;;;;1029237;28;100076;-68
2021/09/02 13:17:25;;;;;;;7.97;6.20;;;;;;;;;;1027980;28;100170;-68
2021/09/02 13:17:56;;;;;;;7.50;5.82;;;;;;;;;;1033094;28;99923;-69
2021/09/02 13:18:27;;;;;;;7.47;6.03;;;;;;;;;;1032450;28;100200;-68
2021/09/02 13:18:58;;;;;;;7.60;5.88;;;;;;;;;;1033392;28;99839;-68
2021/09/02 13:19:29;;;;;;;8.50;5.15;;;;;;;;;;1027741;28;103557;-68
2021/09/02 13:20:00;;;;;;;7.18;5.55;;;;;;;;;;1024608;28;100155;-68
2021/09/02 13:20:31;;;;;;;8.40;5.50;;;;;;;;;;1023720;28;101282;-68
2021/09/02 13:21:01;;;;;;;7.15;5.70;;;;;;;;;;1025087;28;99864;-68
2021/09/02 13:21:32;;;;;;;6.32;5.55;;;;;;;;;;1020123;28;101308;-69
2021/09/02 13:22:03;;;;;;;7.13;5.38;;;;;;;;;;1029216;28;99983;-67
2021/09/02 13:22:36;;;;;;;8.18;5.70;;;;;;;;;;1023920;28;101593;-68
2021/09/02 13:23:07;;;;;;;10.18;6.15;;;;;;;;;;1029512;28;99776;-69
2021/09/02 13:23:37;;;;;;;9.05;5.75;;;;;;;;;;1032149;28;100169;-68
2021/09/02 13:24:08;;;;;;;9.10;5.60;;;;;;;;;;1029572;28;99824;-68
2021/09/02 13:24:39;;;;;;;8.10;5.10;;;;;;;;;;1027451;28;101549;-69
2021/09/02 13:25:12;;;;;;;10.27;6.07;;;;;;;;;;1029084;28;99759;-68
2021/09/02 13:25:45;;;;;;;8.05;5.72;;;;;;;;;;1027882;28;100148;-68
2021/09/02 13:26:16;;;;;;;6.75;5.18;;;;;;;;;;1029825;28;99776;-68
2021/09/02 13:26:47;;;;;;;7.60;5.68;;;;;;;;;;1032143;28;101400;-69
2021/09/02 13:27:18;;;;;;;7.70;5.55;;;;;;;;;;1032901;28;99800;-68
2021/09/02 13:27:49;;;;;;;9.15;5.78;;;;;;;;;;1031654;28;101367;-67
2021/09/02 13:28:20;;;;;;;7.63;5.40;;;;;;;;;;1032697;28;100660;-66
2021/09/02 13:28:51;;;;;;;7.38;5.68;;;;;;;;;;1032101;28;100129;-68
2021/09/02 13:29:22;;;;;;;8.20;5.28;;;;;;;;;;1033474;28;99797;-68
2021/09/02 13:29:53;;;;;;;8.80;5.93;;;;;;;;;;1031632;28;103339;-68
2021/09/02 13:30:24;;;;;;;7.43;5.80;;;;;;;;;;1029190;28;99879;-68
2021/09/02 13:30:55;;;;;;;7.47;5.60;;;;;;;;;;1027668;28;101472;-67
2021/09/02 13:31:26;;;;;;;7.15;5.82;;;;;;;;;;1029105;28;100160;-67
2021/09/02 13:31:57;;;;;;;6.00;4.82;;;;;;;;;;1028209;28;100142;-68
2021/09/02 13:32:28;;;;;;;8.07;5.50;;;;;;;;;;1033243;28;99778;-68
2021/09/02 13:32:59;;;;;;;8.27;5.68;;;;;;;;;;1031388;28;101316;-68
2021/09/02 13:33:30;;;;;;;9.57;5.63;;;;;;;;;;1028773;28;99393;-68
2021/09/02 13:34:04;;;;;;;8.95;6.13;;;;;;;;;;1031565;28;101377;-68
2021/09/02 13:34:35;;;;;;;6.35;5.63;;;;;;;;;;1033161;28;100039;-69
2021/09/02 13:35:08;;;;;;;7.05;5.10;;;;;;;;;;1028339;28;100717;-68
2021/09/02 13:35:38;;;;;;;8.02;6.00;;;;;;;;;;1028890;28;99712;-68
2021/09/02 13:36:09;;;;;;;6.72;5.70;;;;;;;;;;1023265;28;101346;-69
2021/09/02 13:36:40;;;;;;;7.05;5.55;;;;;;;;;;1024752;28;100043;-69
2021/09/02 13:37:11;;;;;;;9.43;5.32;;;;;;;;;;1023490;28;100424;-69
2021/09/02 13:37:42;;;;;;;7.68;5.43;;;;;;;;;;1029133;28;99795;-68
2021/09/02 13:38:16;;;;;;;7.78;5.35;;;;;;;;;;1027565;28;100560;-68
2021/09/02 13:38:47;;;;;;;6.68;5.70;;;;;;;;;;1029677;28;99736;-69
2021/09/02 13:39:19;;;;;;;7.57;5.60;;;;;;;;;;1027630;28;100986;-69
2021/09/02 13:39:50;;;;;;;7.85;5.53;;;;;;;;;;1029778;28;99835;-68
2021/09/02 13:40:21;;;;;;;7.28;5.60;;;;;;;;;;1031508;28;100010;-69
2021/09/02 13:40:53;;;;;;;6.80;5.22;;;;;;;;;;1028946;28;99743;-69
2021/09/02 13:41:25;;;;;;;7.45;5.10;;;;;;;;;;1031478;28;101213;-68
2021/09/02 13:41:57;;;;;;;9.05;5.22;;;;;;;;;;1028768;28;99746;-68
2021/09/02 13:42:27;;;;;;;7.45;5.57;;;;;;;;;;1028243;28;100258;-67
2021/09/02 13:42:58;;;;;;;6.65;5.90;;;;;;;;;;1028565;28;99744;-67
2021/09/02 13:43:29;;;;;;;8.98;5.45;;;;;;;;;;1027801;28;100040;-68
2021/09/02 13:44:00;;;;;;;7.97;5.68;;;;;;;;;;1028415;28;99855;-68
2021/09/02 13:44:32;;;;;;;7.78;5.60;;;;;;;;;;1023300;28;100245;-67
2021/09/02 13:45:04;;;;;;;7.28;5.20;;;;;;;;;;1020663;28;99897;-68
2021/09/02 13:45:34;;;;;;;7.10;5.53;;;;;;;;;;1020920;28;100163;-68
2021/09/02 13:46:06;;;;;;;6.25;5.30;;;;;;;;;;1029282;28;99945;-68
2021/09/02 13:46:37;;;;;;;5.97;5.20;;;;;;;;;;1031292;28;100447;-68
2021/09/02 13:47:08;;;;;;;8.88;5.97;;;;;;;;;;1032788;28;100042;-69
2021/09/02 13:47:39;;;;;;;5.82;5.05;;;;;;;;;;1032146;28;100119;-69
2021/09/02 13:48:43;;;;;;;7.03;5.22;;;;;;;;;;1033841;28;99948;-69
2021/09/02 13:49:14;;;;;;;7.28;5.38;;;;;;;;;;1017633;28;100992;-70
2021/09/02 13:49:45;;;;;;;7.05;5.13;;;;;;;;;;1020545;28;100019;-70
2021/09/02 13:50:16;;;;;;;8.10;5.32;;;;;;;;;;1019410;28;101210;-69
2021/09/02 13:50:47;;;;;;;7.20;5.22;;;;;;;;;;1020283;28;100067;-68
2021/09/02 13:51:19;;;;;;;7.53;5.25;;;;;;;;;;1011488;28;102927;-69
2021/09/02 13:51:50;;;;;;;6.03;5.00;;;;;;;;;;1016513;28;100062;-69
2021/09/02 13:52:21;;;;;;;6.30;4.97;;;;;;;;;;1015378;28;101211;-69
2021/09/02 13:52:52;;;;;;;6.25;5.03;;;;;;;;;;1016436;28;99937;-70
2021/09/02 13:53:24;;;;;;;5.95;5.13;;;;;;;;;;1015520;28;100129;-69
2021/09/02 13:53:56;;;;;;;5.60;4.95;;;;;;;;;;1016738;28;99944;-68
2021/09/02 13:54:28;;;;;;;7.30;4.63;;;;;;;;;;1015778;28;100188;-69
2021/09/02 13:54:59;;;;;;;6.88;5.07;;;;;;;;;;1020712;28;100017;-68
2021/09/02 13:55:30;;;;;;;6.82;5.18;;;;;;;;;;1018915;28;100187;-69
2021/09/02 13:56:01;;;;;;;6.93;5.43;;;;;;;;;;1017201;28;100106;-69
2021/09/02 13:56:32;;;;;;;6.40;5.13;;;;;;;;;;1015861;28;100155;-69
2021/09/02 13:57:03;;;;;;;9.02;5.13;;;;;;;;;;1020580;28;99179;-69
2021/09/02 13:57:34;;;;;;;5.82;5.22;;;;;;;;;;1019385;28;100172;-67
2021/09/02 13:58:06;;;;;;;5.45;4.88;;;;;;;;;;1016192;28;99879;-69
2021/09/02 13:58:38;;;;;;;6.28;4.90;;;;;;;;;;1015593;28;100229;-71
2021/09/02 13:59:09;;;;;;;6.63;5.32;;;;;;;;;;1016355;28;99838;-69
2021/09/02 13:59:40;;;;;;;8.02;5.35;;;;;;;;;;1015683;28;100405;-69
2021/09/02 14:00:13;;;;;;;5.35;4.57;;;;;;;;;;1016346;28;99979;-68
2021/09/02 14:00:44;;;;;;;5.57;4.70;;;;;;;;;;1015460;28;100294;-69
2021/09/02 14:01:16;;;;;;;5.57;4.75;;;;;;;;;;1016331;28;100054;-69
2021/09/02 14:01:47;;;;;;;5.35;4.70;;;;;;;;;;1015482;28;100058;-70
2021/09/02 14:02:18;;;;;;;6.05;4.90;;;;;;;;;;1016306;28;100117;-69
2021/09/02 14:02:49;;;;;;;5.28;4.68;;;;;;;;;;1019450;28;100181;-69
2021/09/02 14:03:20;;;;;;;7.80;5.05;;;;;;;;;;1012396;28;99725;-69
2021/09/02 14:03:51;;;;;;;6.40;4.95;;;;;;;;;;1011796;28;100234;-69
2021/09/02 14:04:22;;;;;;;6.55;5.00;;;;;;;;;;1016497;28;99787;-68
2021/09/02 14:04:53;;;;;;;6.55;5.13;;;;;;;;;;1011935;28;100163;-69
2021/09/02 14:05:24;;;;;;;7.22;5.30;;;;;;;;;;1017014;28;99776;-69
2021/09/02 14:05:55;;;;;;;6.10;4.45;;;;;;;;;;1015639;28;101198;-68